Terminal Aerodrome Forecast
Issued by NWS Des Moines, IA

Home | Current Version | Previous Version | Text Only | Print | Product List | Glossary On
Versions: 1 2 3 4 5 6 7 8 9 10 11 12 13 14 15 16 17 18 19 20
000
FTUS43 KDMX 261903 AAA
TAFALO
TAF AMD
KALO 261903Z 2619/2718 23015KT P6SM SCT100
     FM270100 24007KT P6SM FEW250
     FM270600 17003KT 5SM BR FEW120
     FM271300 15004KT P6SM FEW110=

USA.gov is the U.S. government's official web portal to all federal, state and local government web resources and services.